Terminal Aerodrome Forecast
Issued by NWS

Home | Current Version | Previous Version | Text Only | Print | Product List | Glossary On
Versions: 1 2 3 4 5 6 7 8 9 10 11 12 13 14 15 16 17
000
FTUS45 KTFX 040543
TAFGTF
TAF
KGTF 040543Z 0406/0506 22010KT P6SM BKN120
     FM041500 23015KT P6SM BKN060 OVC100 PROB30 0421/0424 4SM -RASN
      OVC025
     FM050000 24012KT 5SM -SHSN BKN030
     FM050300 34011KT 3SM -SN OVC015=

USA.gov is the U.S. government's official web portal to all federal, state and local government web resources and services.